sensor_id;sensor_type;location;lat;lon;timestamp;P1;durP1;ratioP1;P2;durP2;ratioP2
83495;SDS011;73431;40.794;43.836;2024-03-02T00:00:51;25.20;;;12.10;;
83495;SDS011;73431;40.794;43.836;2024-03-02T00:03:20;48.60;;;15.23;;
83495;SDS011;73431;40.794;43.836;2024-03-02T00:05:49;29.50;;;14.10;;
83495;SDS011;73431;40.794;43.836;2024-03-02T00:08:22;31.40;;;14.00;;
83495;SDS011;73431;40.794;43.836;2024-03-02T00:10:52;30.63;;;14.27;;
83495;SDS011;73431;40.794;43.836;2024-03-02T00:13:25;30.20;;;15.23;;
83495;SDS011;73431;40.794;43.836;2024-03-02T00:15:53;29.58;;;14.95;;
83495;SDS011;73431;40.794;43.836;2024-03-02T00:18:33;31.90;;;14.10;;
83495;SDS011;73431;40.794;43.836;2024-03-02T00:21:03;30.95;;;13.25;;
83495;SDS011;73431;40.794;43.836;2024-03-02T00:23:33;29.80;;;12.73;;
83495;SDS011;73431;40.794;43.836;2024-03-02T00:26:02;27.02;;;13.10;;
83495;SDS011;73431;40.794;43.836;2024-03-02T00:28:34;26.90;;;13.13;;
83495;SDS011;73431;40.794;43.836;2024-03-02T00:31:09;28.42;;;13.35;;
83495;SDS011;73431;40.794;43.836;2024-03-02T00:33:43;20.05;;;11.13;;
83495;SDS011;73431;40.794;43.836;2024-03-02T00:36:14;29.88;;;12.27;;
83495;SDS011;73431;40.794;43.836;2024-03-02T00:38:44;32.17;;;13.52;;
83495;SDS011;73431;40.794;43.836;2024-03-02T00:41:27;33.25;;;11.70;;
83495;SDS011;73431;40.794;43.836;2024-03-02T00:43:58;27.80;;;11.40;;
83495;SDS011;73431;40.794;43.836;2024-03-02T00:46:37;29.63;;;12.73;;
83495;SDS011;73431;40.794;43.836;2024-03-02T00:51:49;30.85;;;12.18;;
83495;SDS011;73431;40.794;43.836;2024-03-02T00:54:20;32.60;;;12.63;;
83495;SDS011;73431;40.794;43.836;2024-03-02T00:56:51;27.10;;;13.55;;
83495;SDS011;73431;40.794;43.836;2024-03-02T00:59:23;26.05;;;14.00;;
83495;SDS011;73431;40.794;43.836;2024-03-02T01:01:51;27.70;;;13.23;;
83495;SDS011;73431;40.794;43.836;2024-03-02T01:04:19;29.25;;;14.38;;
83495;SDS011;73431;40.794;43.836;2024-03-02T01:06:47;42.60;;;14.95;;
83495;SDS011;73431;40.794;43.836;2024-03-02T01:09:16;23.33;;;11.40;;
83495;SDS011;73431;40.794;43.836;2024-03-02T01:11:45;26.50;;;12.23;;
83495;SDS011;73431;40.794;43.836;2024-03-02T01:14:13;36.42;;;13.48;;
83495;SDS011;73431;40.794;43.836;2024-03-02T01:16:40;28.52;;;12.77;;
83495;SDS011;73431;40.794;43.836;2024-03-02T01:19:08;22.75;;;12.13;;
83495;SDS011;73431;40.794;43.836;2024-03-02T01:21:37;30.15;;;11.80;;
83495;SDS011;73431;40.794;43.836;2024-03-02T01:24:05;28.63;;;12.70;;
83495;SDS011;73431;40.794;43.836;2024-03-02T01:26:33;22.90;;;11.25;;
83495;SDS011;73431;40.794;43.836;2024-03-02T01:29:00;35.50;;;12.75;;
83495;SDS011;73431;40.794;43.836;2024-03-02T01:31:28;29.85;;;12.45;;
83495;SDS011;73431;40.794;43.836;2024-03-02T01:33:56;23.73;;;12.48;;
83495;SDS011;73431;40.794;43.836;2024-03-02T01:36:23;24.25;;;12.05;;
83495;SDS011;73431;40.794;43.836;2024-03-02T01:41:19;22.73;;;10.55;;
83495;SDS011;73431;40.794;43.836;2024-03-02T01:43:47;23.48;;;11.90;;
83495;SDS011;73431;40.794;43.836;2024-03-02T01:46:15;23.27;;;10.70;;
83495;SDS011;73431;40.794;43.836;2024-03-02T01:48:43;26.20;;;11.45;;
83495;SDS011;73431;40.794;43.836;2024-03-02T01:51:11;27.50;;;12.85;;
83495;SDS011;73431;40.794;43.836;2024-03-02T01:53:39;28.88;;;12.18;;
83495;SDS011;73431;40.794;43.836;2024-03-02T01:56:06;28.45;;;12.38;;
83495;SDS011;73431;40.794;43.836;2024-03-02T01:58:34;27.70;;;13.05;;
83495;SDS011;73431;40.794;43.836;2024-03-02T02:01:03;23.33;;;12.07;;
83495;SDS011;73431;40.794;43.836;2024-03-02T02:03:31;27.73;;;11.25;;
83495;SDS011;73431;40.794;43.836;2024-03-02T02:05:59;19.05;;;10.73;;
83495;SDS011;73431;40.794;43.836;2024-03-02T02:08:27;26.30;;;11.80;;
83495;SDS011;73431;40.794;43.836;2024-03-02T02:10:54;23.60;;;12.18;;
83495;SDS011;73431;40.794;43.836;2024-03-02T02:13:22;23.85;;;11.57;;
83495;SDS011;73431;40.794;43.836;2024-03-02T02:15:50;31.92;;;12.73;;
83495;SDS011;73431;40.794;43.836;2024-03-02T02:18:19;23.90;;;12.27;;
83495;SDS011;73431;40.794;43.836;2024-03-02T02:20:48;28.45;;;12.00;;
83495;SDS011;73431;40.794;43.836;2024-03-02T02:23:15;23.25;;;11.02;;
83495;SDS011;73431;40.794;43.836;2024-03-02T02:25:43;20.75;;;11.20;;
83495;SDS011;73431;40.794;43.836;2024-03-02T02:28:10;21.95;;;10.65;;
83495;SDS011;73431;40.794;43.836;2024-03-02T02:30:38;31.65;;;12.52;;
83495;SDS011;73431;40.794;43.836;2024-03-02T02:33:06;25.67;;;12.00;;
83495;SDS011;73431;40.794;43.836;2024-03-02T02:35:34;20.02;;;11.32;;
83495;SDS011;73431;40.794;43.836;2024-03-02T02:38:02;24.65;;;10.50;;
83495;SDS011;73431;40.794;43.836;2024-03-02T02:40:30;27.15;;;12.60;;
83495;SDS011;73431;40.794;43.836;2024-03-02T02:42:58;25.88;;;12.15;;
83495;SDS011;73431;40.794;43.836;2024-03-02T02:45:26;23.65;;;11.35;;
83495;SDS011;73431;40.794;43.836;2024-03-02T02:47:54;32.47;;;11.88;;
83495;SDS011;73431;40.794;43.836;2024-03-02T02:50:22;23.40;;;11.02;;
83495;SDS011;73431;40.794;43.836;2024-03-02T02:52:50;23.23;;;11.32;;
83495;SDS011;73431;40.794;43.836;2024-03-02T02:55:18;25.13;;;13.35;;
83495;SDS011;73431;40.794;43.836;2024-03-02T02:57:45;24.48;;;12.57;;
83495;SDS011;73431;40.794;43.836;2024-03-02T03:00:15;29.05;;;11.90;;
83495;SDS011;73431;40.794;43.836;2024-03-02T03:02:46;25.73;;;12.95;;
83495;SDS011;73431;40.794;43.836;2024-03-02T03:05:17;32.97;;;13.50;;
83495;SDS011;73431;40.794;43.836;2024-03-02T03:07:45;22.95;;;11.95;;
83495;SDS011;73431;40.794;43.836;2024-03-02T03:10:16;33.88;;;14.35;;
83495;SDS011;73431;40.794;43.836;2024-03-02T03:12:44;30.85;;;15.38;;
83495;SDS011;73431;40.794;43.836;2024-03-02T03:15:12;34.17;;;16.02;;
83495;SDS011;73431;40.794;43.836;2024-03-02T03:17:40;36.33;;;16.20;;
83495;SDS011;73431;40.794;43.836;2024-03-02T03:20:08;35.80;;;15.77;;
83495;SDS011;73431;40.794;43.836;2024-03-02T03:22:43;35.55;;;16.70;;
83495;SDS011;73431;40.794;43.836;2024-03-02T03:25:11;32.88;;;16.38;;
83495;SDS011;73431;40.794;43.836;2024-03-02T03:27:38;35.20;;;16.77;;
83495;SDS011;73431;40.794;43.836;2024-03-02T03:30:06;37.80;;;16.75;;
83495;SDS011;73431;40.794;43.836;2024-03-02T03:35:03;34.80;;;17.35;;
83495;SDS011;73431;40.794;43.836;2024-03-02T03:37:31;27.88;;;13.90;;
83495;SDS011;73431;40.794;43.836;2024-03-02T03:40:02;26.85;;;13.85;;
83495;SDS011;73431;40.794;43.836;2024-03-02T03:42:34;32.80;;;15.07;;
83495;SDS011;73431;40.794;43.836;2024-03-02T03:45:02;29.15;;;13.43;;
83495;SDS011;73431;40.794;43.836;2024-03-02T03:47:31;33.10;;;15.38;;
83495;SDS011;73431;40.794;43.836;2024-03-02T03:50:00;45.72;;;14.95;;
83495;SDS011;73431;40.794;43.836;2024-03-02T03:52:29;28.45;;;13.52;;
83495;SDS011;73431;40.794;43.836;2024-03-02T03:55:00;33.13;;;15.77;;
83495;SDS011;73431;40.794;43.836;2024-03-02T03:57:28;33.55;;;14.93;;
83495;SDS011;73431;40.794;43.836;2024-03-02T03:59:57;34.65;;;15.63;;
83495;SDS011;73431;40.794;43.836;2024-03-02T04:02:25;34.42;;;17.67;;
83495;SDS011;73431;40.794;43.836;2024-03-02T04:04:52;53.42;;;18.00;;
83495;SDS011;73431;40.794;43.836;2024-03-02T04:07:21;45.03;;;18.15;;
83495;SDS011;73431;40.794;43.836;2024-03-02T04:09:48;49.67;;;17.08;;
83495;SDS011;73431;40.794;43.836;2024-03-02T04:12:16;62.33;;;18.80;;
83495;SDS011;73431;40.794;43.836;2024-03-02T04:14:44;46.90;;;17.83;;
83495;SDS011;73431;40.794;43.836;2024-03-02T04:17:11;46.17;;;17.45;;
83495;SDS011;73431;40.794;43.836;2024-03-02T04:19:40;42.95;;;19.70;;
83495;SDS011;73431;40.794;43.836;2024-03-02T04:22:07;48.00;;;19.88;;
83495;SDS011;73431;40.794;43.836;2024-03-02T04:24:47;49.05;;;18.85;;
83495;SDS011;73431;40.794;43.836;2024-03-02T04:27:15;57.42;;;20.10;;
83495;SDS011;73431;40.794;43.836;2024-03-02T04:29:43;44.53;;;19.00;;
83495;SDS011;73431;40.794;43.836;2024-03-02T04:32:10;67.03;;;21.38;;
83495;SDS011;73431;40.794;43.836;2024-03-02T04:34:38;47.72;;;19.67;;
83495;SDS011;73431;40.794;43.836;2024-03-02T04:37:06;51.95;;;20.52;;
83495;SDS011;73431;40.794;43.836;2024-03-02T04:39:35;56.92;;;20.02;;
83495;SDS011;73431;40.794;43.836;2024-03-02T04:42:03;55.97;;;17.73;;
83495;SDS011;73431;40.794;43.836;2024-03-02T04:44:31;66.15;;;20.38;;
83495;SDS011;73431;40.794;43.836;2024-03-02T04:49:26;41.38;;;16.23;;
83495;SDS011;73431;40.794;43.836;2024-03-02T04:51:55;48.05;;;18.13;;
83495;SDS011;73431;40.794;43.836;2024-03-02T04:54:24;44.53;;;19.73;;
83495;SDS011;73431;40.794;43.836;2024-03-02T04:56:52;58.97;;;19.67;;
83495;SDS011;73431;40.794;43.836;2024-03-02T04:59:20;49.63;;;20.45;;
83495;SDS011;73431;40.794;43.836;2024-03-02T05:01:48;49.75;;;18.38;;
83495;SDS011;73431;40.794;43.836;2024-03-02T05:04:16;47.15;;;17.52;;
83495;SDS011;73431;40.794;43.836;2024-03-02T05:06:43;55.20;;;18.98;;
83495;SDS011;73431;40.794;43.836;2024-03-02T05:09:18;40.17;;;19.17;;
83495;SDS011;73431;40.794;43.836;2024-03-02T05:11:45;60.90;;;22.83;;
83495;SDS011;73431;40.794;43.836;2024-03-02T05:14:26;101.50;;;26.40;;
83495;SDS011;73431;40.794;43.836;2024-03-02T05:16:53;56.08;;;22.40;;
83495;SDS011;73431;40.794;43.836;2024-03-02T05:19:21;58.65;;;22.52;;
83495;SDS011;73431;40.794;43.836;2024-03-02T05:21:49;52.35;;;21.27;;
83495;SDS011;73431;40.794;43.836;2024-03-02T05:24:18;42.20;;;15.95;;
83495;SDS011;73431;40.794;43.836;2024-03-02T05:26:46;50.40;;;19.65;;
83495;SDS011;73431;40.794;43.836;2024-03-02T05:29:14;57.30;;;18.25;;
83495;SDS011;73431;40.794;43.836;2024-03-02T05:31:42;54.33;;;19.08;;
83495;SDS011;73431;40.794;43.836;2024-03-02T05:34:10;52.00;;;21.27;;
83495;SDS011;73431;40.794;43.836;2024-03-02T05:36:38;42.40;;;19.63;;
83495;SDS011;73431;40.794;43.836;2024-03-02T05:39:06;47.75;;;19.48;;
83495;SDS011;73431;40.794;43.836;2024-03-02T05:41:36;53.20;;;19.70;;
83495;SDS011;73431;40.794;43.836;2024-03-02T05:44:05;74.93;;;32.25;;
83495;SDS011;73431;40.794;43.836;2024-03-02T05:46:33;68.10;;;24.08;;
83495;SDS011;73431;40.794;43.836;2024-03-02T05:49:02;62.38;;;23.67;;
83495;SDS011;73431;40.794;43.836;2024-03-02T05:51:30;61.63;;;23.10;;
83495;SDS011;73431;40.794;43.836;2024-03-02T05:53:58;62.55;;;25.20;;
83495;SDS011;73431;40.794;43.836;2024-03-02T05:56:25;56.30;;;20.75;;
83495;SDS011;73431;40.794;43.836;2024-03-02T06:01:40;65.22;;;22.60;;
83495;SDS011;73431;40.794;43.836;2024-03-02T06:04:12;60.22;;;23.48;;
83495;SDS011;73431;40.794;43.836;2024-03-02T06:09:08;49.42;;;24.08;;
83495;SDS011;73431;40.794;43.836;2024-03-02T06:11:40;60.88;;;24.25;;
83495;SDS011;73431;40.794;43.836;2024-03-02T06:14:08;46.63;;;19.27;;
83495;SDS011;73431;40.794;43.836;2024-03-02T06:19:04;39.80;;;17.83;;
83495;SDS011;73431;40.794;43.836;2024-03-02T06:21:32;45.35;;;21.90;;
83495;SDS011;73431;40.794;43.836;2024-03-02T06:26:28;64.80;;;23.05;;
83495;SDS011;73431;40.794;43.836;2024-03-02T06:28:57;55.85;;;21.35;;
83495;SDS011;73431;40.794;43.836;2024-03-02T06:33:53;48.25;;;20.20;;
83495;SDS011;73431;40.794;43.836;2024-03-02T06:36:21;49.92;;;18.85;;
83495;SDS011;73431;40.794;43.836;2024-03-02T06:38:49;42.75;;;19.23;;
83495;SDS011;73431;40.794;43.836;2024-03-02T06:41:17;43.13;;;19.85;;
83495;SDS011;73431;40.794;43.836;2024-03-02T06:43:44;55.10;;;20.35;;
83495;SDS011;73431;40.794;43.836;2024-03-02T06:46:12;38.95;;;17.63;;
83495;SDS011;73431;40.794;43.836;2024-03-02T06:48:42;48.00;;;17.58;;
83495;SDS011;73431;40.794;43.836;2024-03-02T06:51:09;38.13;;;17.67;;
83495;SDS011;73431;40.794;43.836;2024-03-02T06:53:38;41.28;;;18.35;;
83495;SDS011;73431;40.794;43.836;2024-03-02T06:56:06;45.60;;;18.65;;
83495;SDS011;73431;40.794;43.836;2024-03-02T06:58:37;48.40;;;19.70;;
83495;SDS011;73431;40.794;43.836;2024-03-02T07:01:05;39.42;;;17.67;;
83495;SDS011;73431;40.794;43.836;2024-03-02T07:03:33;39.05;;;15.63;;
83495;SDS011;73431;40.794;43.836;2024-03-02T07:06:01;35.47;;;16.00;;
83495;SDS011;73431;40.794;43.836;2024-03-02T07:08:30;38.28;;;16.75;;
83495;SDS011;73431;40.794;43.836;2024-03-02T07:13:26;39.97;;;15.85;;
83495;SDS011;73431;40.794;43.836;2024-03-02T07:15:53;28.55;;;14.65;;
83495;SDS011;73431;40.794;43.836;2024-03-02T07:18:30;42.20;;;13.30;;
83495;SDS011;73431;40.794;43.836;2024-03-02T07:20:59;25.10;;;11.88;;
83495;SDS011;73431;40.794;43.836;2024-03-02T07:23:28;31.17;;;14.57;;
83495;SDS011;73431;40.794;43.836;2024-03-02T07:25:57;34.38;;;14.77;;
83495;SDS011;73431;40.794;43.836;2024-03-02T07:28:29;28.83;;;14.70;;
83495;SDS011;73431;40.794;43.836;2024-03-02T07:30:59;24.48;;;12.93;;
83495;SDS011;73431;40.794;43.836;2024-03-02T07:33:29;36.47;;;14.10;;
83495;SDS011;73431;40.794;43.836;2024-03-02T07:35:56;31.38;;;13.98;;
83495;SDS011;73431;40.794;43.836;2024-03-02T07:38:29;25.17;;;13.93;;
83495;SDS011;73431;40.794;43.836;2024-03-02T07:40:57;34.95;;;14.32;;
83495;SDS011;73431;40.794;43.836;2024-03-02T07:43:25;31.35;;;14.43;;
83495;SDS011;73431;40.794;43.836;2024-03-02T07:48:20;29.95;;;12.75;;
83495;SDS011;73431;40.794;43.836;2024-03-02T07:50:48;34.00;;;15.07;;
83495;SDS011;73431;40.794;43.836;2024-03-02T07:53:15;35.70;;;13.55;;
83495;SDS011;73431;40.794;43.836;2024-03-02T07:55:43;24.77;;;12.02;;
83495;SDS011;73431;40.794;43.836;2024-03-02T07:58:11;24.58;;;10.80;;
83495;SDS011;73431;40.794;43.836;2024-03-02T08:00:40;18.48;;;9.85;;
83495;SDS011;73431;40.794;43.836;2024-03-02T08:03:08;29.27;;;11.20;;
83495;SDS011;73431;40.794;43.836;2024-03-02T08:05:38;24.60;;;10.20;;
83495;SDS011;73431;40.794;43.836;2024-03-02T08:08:06;21.85;;;11.50;;
83495;SDS011;73431;40.794;43.836;2024-03-02T08:10:34;24.13;;;11.40;;
83495;SDS011;73431;40.794;43.836;2024-03-02T08:13:02;21.23;;;9.07;;
83495;SDS011;73431;40.794;43.836;2024-03-02T08:15:30;24.85;;;10.45;;
83495;SDS011;73431;40.794;43.836;2024-03-02T08:20:26;21.35;;;9.38;;
83495;SDS011;73431;40.794;43.836;2024-03-02T08:22:54;25.20;;;10.32;;
83495;SDS011;73431;40.794;43.836;2024-03-02T08:25:22;21.38;;;10.40;;
83495;SDS011;73431;40.794;43.836;2024-03-02T08:27:50;19.38;;;10.32;;
83495;SDS011;73431;40.794;43.836;2024-03-02T08:30:18;23.65;;;11.55;;
83495;SDS011;73431;40.794;43.836;2024-03-02T08:32:46;19.80;;;10.63;;
83495;SDS011;73431;40.794;43.836;2024-03-02T08:35:15;21.83;;;11.25;;
83495;SDS011;73431;40.794;43.836;2024-03-02T08:37:42;25.27;;;14.00;;
83495;SDS011;73431;40.794;43.836;2024-03-02T08:40:10;26.02;;;12.10;;
83495;SDS011;73431;40.794;43.836;2024-03-02T08:42:44;132.23;;;18.52;;
83495;SDS011;73431;40.794;43.836;2024-03-02T08:45:13;21.15;;;9.50;;
83495;SDS011;73431;40.794;43.836;2024-03-02T08:50:09;19.73;;;9.32;;
83495;SDS011;73431;40.794;43.836;2024-03-02T08:52:36;21.10;;;10.23;;
83495;SDS011;73431;40.794;43.836;2024-03-02T08:55:04;24.33;;;10.13;;
83495;SDS011;73431;40.794;43.836;2024-03-02T08:57:34;25.73;;;11.32;;
83495;SDS011;73431;40.794;43.836;2024-03-02T09:00:02;30.48;;;12.82;;
83495;SDS011;73431;40.794;43.836;2024-03-02T09:02:32;20.20;;;10.57;;
83495;SDS011;73431;40.794;43.836;2024-03-02T09:05:02;21.80;;;11.02;;
83495;SDS011;73431;40.794;43.836;2024-03-02T09:07:30;20.55;;;10.30;;
83495;SDS011;73431;40.794;43.836;2024-03-02T09:09:57;19.23;;;10.50;;
83495;SDS011;73431;40.794;43.836;2024-03-02T09:12:25;35.67;;;10.68;;
83495;SDS011;73431;40.794;43.836;2024-03-02T09:17:20;29.35;;;10.80;;
83495;SDS011;73431;40.794;43.836;2024-03-02T09:19:48;28.88;;;11.10;;
83495;SDS011;73431;40.794;43.836;2024-03-02T09:22:19;26.20;;;11.45;;
83495;SDS011;73431;40.794;43.836;2024-03-02T09:24:48;23.40;;;10.73;;
83495;SDS011;73431;40.794;43.836;2024-03-02T09:29:43;23.40;;;11.77;;
83495;SDS011;73431;40.794;43.836;2024-03-02T09:32:14;22.95;;;11.23;;
83495;SDS011;73431;40.794;43.836;2024-03-02T09:34:42;22.80;;;12.07;;
83495;SDS011;73431;40.794;43.836;2024-03-02T09:37:10;22.48;;;11.48;;
83495;SDS011;73431;40.794;43.836;2024-03-02T09:39:38;20.80;;;11.85;;
83495;SDS011;73431;40.794;43.836;2024-03-02T09:44:34;24.33;;;10.38;;
83495;SDS011;73431;40.794;43.836;2024-03-02T09:47:02;17.92;;;9.82;;
83495;SDS011;73431;40.794;43.836;2024-03-02T09:49:30;27.80;;;12.95;;
83495;SDS011;73431;40.794;43.836;2024-03-02T09:51:58;26.83;;;11.45;;
83495;SDS011;73431;40.794;43.836;2024-03-02T09:56:54;20.45;;;10.23;;
83495;SDS011;73431;40.794;43.836;2024-03-02T09:59:22;27.33;;;13.77;;
83495;SDS011;73431;40.794;43.836;2024-03-02T10:01:59;20.85;;;10.00;;
83495;SDS011;73431;40.794;43.836;2024-03-02T10:04:28;25.48;;;12.18;;
83495;SDS011;73431;40.794;43.836;2024-03-02T10:07:18;23.33;;;10.50;;
83495;SDS011;73431;40.794;43.836;2024-03-02T10:09:47;16.55;;;9.70;;
83495;SDS011;73431;40.794;43.836;2024-03-02T10:12:16;26.98;;;12.20;;
83495;SDS011;73431;40.794;43.836;2024-03-02T10:14:45;24.90;;;10.48;;
83495;SDS011;73431;40.794;43.836;2024-03-02T10:17:17;26.70;;;10.85;;
83495;SDS011;73431;40.794;43.836;2024-03-02T10:19:45;19.63;;;9.88;;
83495;SDS011;73431;40.794;43.836;2024-03-02T10:22:12;23.52;;;12.00;;
83495;SDS011;73431;40.794;43.836;2024-03-02T10:24:42;18.85;;;10.00;;
83495;SDS011;73431;40.794;43.836;2024-03-02T10:27:26;21.65;;;9.57;;
83495;SDS011;73431;40.794;43.836;2024-03-02T10:29:56;18.80;;;9.88;;
83495;SDS011;73431;40.794;43.836;2024-03-02T10:32:24;31.83;;;10.20;;
83495;SDS011;73431;40.794;43.836;2024-03-02T10:34:52;20.75;;;9.77;;
83495;SDS011;73431;40.794;43.836;2024-03-02T10:37:19;20.10;;;8.30;;
83495;SDS011;73431;40.794;43.836;2024-03-02T10:39:49;16.77;;;9.10;;
83495;SDS011;73431;40.794;43.836;2024-03-02T10:42:16;19.50;;;8.18;;
83495;SDS011;73431;40.794;43.836;2024-03-02T10:44:47;20.35;;;10.23;;
83495;SDS011;73431;40.794;43.836;2024-03-02T10:47:17;20.70;;;9.02;;
83495;SDS011;73431;40.794;43.836;2024-03-02T10:49:47;17.58;;;9.18;;
83495;SDS011;73431;40.794;43.836;2024-03-02T10:52:20;19.83;;;10.50;;
83495;SDS011;73431;40.794;43.836;2024-03-02T10:54:50;25.33;;;10.30;;
83495;SDS011;73431;40.794;43.836;2024-03-02T10:57:18;66.38;;;11.60;;
83495;SDS011;73431;40.794;43.836;2024-03-02T10:59:52;34.53;;;11.52;;
83495;SDS011;73431;40.794;43.836;2024-03-02T11:02:24;28.83;;;9.38;;
83495;SDS011;73431;40.794;43.836;2024-03-02T11:04:54;44.95;;;9.70;;
83495;SDS011;73431;40.794;43.836;2024-03-02T11:07:23;19.33;;;8.90;;
83495;SDS011;73431;40.794;43.836;2024-03-02T11:09:59;21.70;;;8.45;;
83495;SDS011;73431;40.794;43.836;2024-03-02T11:12:35;16.83;;;7.88;;
83495;SDS011;73431;40.794;43.836;2024-03-02T11:15:09;20.27;;;9.25;;
83495;SDS011;73431;40.794;43.836;2024-03-02T11:17:39;16.45;;;9.32;;
83495;SDS011;73431;40.794;43.836;2024-03-02T11:20:09;23.77;;;9.35;;
83495;SDS011;73431;40.794;43.836;2024-03-02T11:22:37;19.20;;;9.13;;
83495;SDS011;73431;40.794;43.836;2024-03-02T11:25:06;14.88;;;7.95;;
83495;SDS011;73431;40.794;43.836;2024-03-02T11:33:03;24.70;;;9.57;;
83495;SDS011;73431;40.794;43.836;2024-03-02T11:35:41;54.90;;;27.42;;
83495;SDS011;73431;40.794;43.836;2024-03-02T11:38:10;28.10;;;10.18;;
83495;SDS011;73431;40.794;43.836;2024-03-02T11:40:39;15.07;;;8.38;;
83495;SDS011;73431;40.794;43.836;2024-03-02T11:43:07;55.38;;;23.33;;
83495;SDS011;73431;40.794;43.836;2024-03-02T11:45:37;45.58;;;22.60;;
83495;SDS011;73431;40.794;43.836;2024-03-02T11:48:11;17.55;;;8.90;;
83495;SDS011;73431;40.794;43.836;2024-03-02T11:50:43;33.28;;;15.32;;
83495;SDS011;73431;40.794;43.836;2024-03-02T11:55:45;20.30;;;8.68;;
83495;SDS011;73431;40.794;43.836;2024-03-02T11:58:16;15.55;;;7.72;;
83495;SDS011;73431;40.794;43.836;2024-03-02T12:00:50;22.33;;;8.50;;
83495;SDS011;73431;40.794;43.836;2024-03-02T12:03:20;29.08;;;10.05;;
83495;SDS011;73431;40.794;43.836;2024-03-02T12:05:50;21.95;;;9.52;;
83495;SDS011;73431;40.794;43.836;2024-03-02T12:08:20;16.08;;;8.10;;
83495;SDS011;73431;40.794;43.836;2024-03-02T12:10:58;12.75;;;7.20;;
83495;SDS011;73431;40.794;43.836;2024-03-02T12:13:29;20.08;;;9.55;;
83495;SDS011;73431;40.794;43.836;2024-03-02T12:18:25;16.85;;;8.40;;
83495;SDS011;73431;40.794;43.836;2024-03-02T12:20:54;29.08;;;9.50;;
83495;SDS011;73431;40.794;43.836;2024-03-02T12:23:26;72.38;;;13.65;;
83495;SDS011;73431;40.794;43.836;2024-03-02T12:28:21;13.45;;;7.13;;
83495;SDS011;73431;40.794;43.836;2024-03-02T12:33:17;18.65;;;8.23;;
83495;SDS011;73431;40.794;43.836;2024-03-02T12:35:48;23.80;;;8.60;;
83495;SDS011;73431;40.794;43.836;2024-03-02T12:38:16;18.73;;;9.68;;
83495;SDS011;73431;40.794;43.836;2024-03-02T12:40:44;19.38;;;8.90;;
83495;SDS011;73431;40.794;43.836;2024-03-02T12:43:15;15.32;;;8.40;;
83495;SDS011;73431;40.794;43.836;2024-03-02T12:45:43;54.40;;;11.25;;
83495;SDS011;73431;40.794;43.836;2024-03-02T12:48:11;156.85;;;17.05;;
83495;SDS011;73431;40.794;43.836;2024-03-02T12:50:41;16.27;;;9.57;;
83495;SDS011;73431;40.794;43.836;2024-03-02T12:53:13;40.22;;;10.70;;
83495;SDS011;73431;40.794;43.836;2024-03-02T12:55:43;22.08;;;8.05;;
83495;SDS011;73431;40.794;43.836;2024-03-02T12:58:21;16.05;;;9.30;;
83495;SDS011;73431;40.794;43.836;2024-03-02T13:00:49;15.73;;;7.10;;
83495;SDS011;73431;40.794;43.836;2024-03-02T13:03:18;14.88;;;8.52;;
83495;SDS011;73431;40.794;43.836;2024-03-02T13:05:48;19.52;;;7.38;;
83495;SDS011;73431;40.794;43.836;2024-03-02T13:08:21;16.50;;;7.70;;
83495;SDS011;73431;40.794;43.836;2024-03-02T13:10:49;20.25;;;7.88;;
83495;SDS011;73431;40.794;43.836;2024-03-02T13:13:17;28.35;;;10.20;;
83495;SDS011;73431;40.794;43.836;2024-03-02T13:18:13;25.77;;;11.95;;
83495;SDS011;73431;40.794;43.836;2024-03-02T13:20:41;26.00;;;14.45;;
83495;SDS011;73431;40.794;43.836;2024-03-02T13:23:09;25.30;;;12.68;;
83495;SDS011;73431;40.794;43.836;2024-03-02T13:25:37;60.90;;;25.77;;
83495;SDS011;73431;40.794;43.836;2024-03-02T13:28:05;79.95;;;29.63;;
83495;SDS011;73431;40.794;43.836;2024-03-02T13:30:34;36.95;;;20.52;;
83495;SDS011;73431;40.794;43.836;2024-03-02T13:33:02;43.97;;;17.73;;
83495;SDS011;73431;40.794;43.836;2024-03-02T13:37:58;82.63;;;37.35;;
83495;SDS011;73431;40.794;43.836;2024-03-02T13:40:26;90.10;;;38.17;;
83495;SDS011;73431;40.794;43.836;2024-03-02T13:42:54;68.20;;;30.65;;
83495;SDS011;73431;40.794;43.836;2024-03-02T13:45:23;57.22;;;23.15;;
83495;SDS011;73431;40.794;43.836;2024-03-02T13:47:51;49.17;;;17.75;;
83495;SDS011;73431;40.794;43.836;2024-03-02T13:50:19;39.97;;;18.92;;
83495;SDS011;73431;40.794;43.836;2024-03-02T13:52:47;22.02;;;11.93;;
83495;SDS011;73431;40.794;43.836;2024-03-02T13:55:15;27.23;;;10.93;;
83495;SDS011;73431;40.794;43.836;2024-03-02T14:00:11;34.60;;;16.73;;
83495;SDS011;73431;40.794;43.836;2024-03-02T14:02:39;52.15;;;11.80;;
83495;SDS011;73431;40.794;43.836;2024-03-02T14:05:07;38.70;;;11.95;;
83495;SDS011;73431;40.794;43.836;2024-03-02T14:07:39;25.27;;;9.90;;
83495;SDS011;73431;40.794;43.836;2024-03-02T14:10:08;26.30;;;9.50;;
83495;SDS011;73431;40.794;43.836;2024-03-02T14:15:04;27.88;;;12.23;;
83495;SDS011;73431;40.794;43.836;2024-03-02T14:17:32;21.58;;;10.18;;
83495;SDS011;73431;40.794;43.836;2024-03-02T14:20:01;31.50;;;13.15;;
83495;SDS011;73431;40.794;43.836;2024-03-02T14:22:29;84.78;;;20.38;;
83495;SDS011;73431;40.794;43.836;2024-03-02T14:24:57;61.28;;;18.05;;
83495;SDS011;73431;40.794;43.836;2024-03-02T14:27:25;39.10;;;13.68;;
83495;SDS011;73431;40.794;43.836;2024-03-02T14:30:13;29.40;;;13.02;;
83495;SDS011;73431;40.794;43.836;2024-03-02T14:32:40;21.15;;;9.55;;
83495;SDS011;73431;40.794;43.836;2024-03-02T14:35:08;26.83;;;12.60;;
83495;SDS011;73431;40.794;43.836;2024-03-02T14:37:37;32.63;;;14.13;;
83495;SDS011;73431;40.794;43.836;2024-03-02T14:40:05;24.45;;;11.25;;
83495;SDS011;73431;40.794;43.836;2024-03-02T14:45:01;26.08;;;10.90;;
83495;SDS011;73431;40.794;43.836;2024-03-02T14:47:32;24.63;;;11.75;;
83495;SDS011;73431;40.794;43.836;2024-03-02T14:50:03;20.92;;;10.35;;
83495;SDS011;73431;40.794;43.836;2024-03-02T14:52:33;29.80;;;12.15;;
83495;SDS011;73431;40.794;43.836;2024-03-02T14:55:01;20.02;;;10.48;;
83495;SDS011;73431;40.794;43.836;2024-03-02T14:57:35;25.20;;;10.50;;
83495;SDS011;73431;40.794;43.836;2024-03-02T15:00:03;35.03;;;13.77;;
83495;SDS011;73431;40.794;43.836;2024-03-02T15:02:34;31.17;;;13.88;;
83495;SDS011;73431;40.794;43.836;2024-03-02T15:05:02;43.45;;;18.38;;
83495;SDS011;73431;40.794;43.836;2024-03-02T15:07:33;48.10;;;18.08;;
83495;SDS011;73431;40.794;43.836;2024-03-02T15:12:29;33.65;;;17.45;;
83495;SDS011;73431;40.794;43.836;2024-03-02T15:14:56;197.85;;;64.90;;
83495;SDS011;73431;40.794;43.836;2024-03-02T15:17:25;149.15;;;54.28;;
83495;SDS011;73431;40.794;43.836;2024-03-02T15:19:53;78.53;;;33.10;;
83495;SDS011;73431;40.794;43.836;2024-03-02T15:22:21;67.78;;;28.63;;
83495;SDS011;73431;40.794;43.836;2024-03-02T15:24:49;66.15;;;25.50;;
83495;SDS011;73431;40.794;43.836;2024-03-02T15:27:18;36.28;;;15.63;;
83495;SDS011;73431;40.794;43.836;2024-03-02T15:29:46;36.97;;;13.75;;
83495;SDS011;73431;40.794;43.836;2024-03-02T15:32:15;123.70;;;59.47;;
83495;SDS011;73431;40.794;43.836;2024-03-02T15:34:43;68.35;;;34.00;;